createdAt,value
2023-04-09T00:00:10.710Z,100865.28
2023-04-09T00:03:13.351Z,100873.06
2023-04-09T00:06:16.079Z,100868.88
2023-04-09T00:09:18.570Z,100864.44
2023-04-09T00:12:21.245Z,100872.19
2023-04-09T00:15:30.527Z,100867.87
2023-04-09T00:18:33.824Z,100869.44
2023-04-09T00:21:36.573Z,100866.97
2023-04-09T00:24:39.171Z,100864.56
2023-04-09T00:27:41.559Z,100867.03
2023-04-09T00:30:44.184Z,100865.88
2023-04-09T00:33:46.611Z,100868.47
2023-04-09T00:36:48.951Z,100866.69
2023-04-09T00:39:51.558Z,100868.31
2023-04-09T00:42:53.839Z,100866.56
2023-04-09T00:45:56.643Z,100861.31
2023-04-09T00:48:59.466Z,100866.41
2023-04-09T00:52:02.086Z,100866.41
2023-04-09T00:55:06.729Z,100866.34
2023-04-09T00:58:09.214Z,100858.50
2023-04-09T01:01:11.732Z,100864.53
2023-04-09T01:04:14.560Z,100862.03
2023-04-09T01:07:38.646Z,100862.06
2023-04-09T01:10:53.041Z,100863.66
2023-04-09T01:13:55.948Z,100863.91
2023-04-09T01:17:05.153Z,100866.84
2023-04-09T01:20:12.807Z,100859.97
2023-04-09T01:23:34.353Z,100859.28
2023-04-09T01:26:55.433Z,100860.13
2023-04-09T01:29:58.519Z,100859.56
2023-04-09T01:33:01.644Z,100856.25
2023-04-09T01:36:05.050Z,100864.16
2023-04-09T01:39:10.728Z,100864.34
2023-04-09T01:42:13.556Z,100866.09
2023-04-09T01:45:17.672Z,100864.44
2023-04-09T01:48:21.176Z,100868.69
2023-04-09T01:51:24.381Z,100870.44
2023-04-09T01:54:26.861Z,100855.84
2023-04-09T01:57:30.148Z,100860.09
2023-04-09T02:00:37.499Z,100860.75
2023-04-09T02:03:43.060Z,100860.06
2023-04-09T02:06:45.725Z,100866.66
2023-04-09T02:09:49.688Z,100859.78
2023-04-09T02:12:53.293Z,100863.41
2023-04-09T02:15:57.073Z,100861.16
2023-04-09T02:19:01.796Z,100865.59
2023-04-09T02:22:04.877Z,100865.59
2023-04-09T02:25:08.402Z,100860.63
2023-04-09T02:28:10.979Z,100861.44
2023-04-09T02:31:13.953Z,100849.19
2023-04-09T02:34:18.343Z,100855.00
2023-04-09T02:37:22.136Z,100848.13
2023-04-09T02:40:25.644Z,100852.44
2023-04-09T02:43:28.601Z,100855.62
2023-04-09T02:46:32.183Z,100861.34
2023-04-09T02:49:35.352Z,100852.53
2023-04-09T02:52:37.963Z,100857.37
2023-04-09T02:55:40.901Z,100854.78
2023-04-09T02:58:44.150Z,100850.47
2023-04-09T03:01:47.943Z,100845.19
2023-04-09T03:04:52.719Z,100854.69
2023-04-09T03:07:56.530Z,100857.50
2023-04-09T03:10:59.336Z,100855.91
2023-04-09T03:14:02.194Z,100857.81
2023-04-09T03:17:05.021Z,100856.41
2023-04-09T03:20:09.650Z,100852.03
2023-04-09T03:23:12.768Z,100856.34
2023-04-09T03:26:16.544Z,100848.84
2023-04-09T03:29:19.945Z,100858.19
2023-04-09T03:32:22.666Z,100853.19
2023-04-09T03:35:26.051Z,100848.25
2023-04-09T03:38:28.877Z,100853.53
2023-04-09T03:41:33.145Z,100850.09
2023-04-09T03:44:36.398Z,100857.78
2023-04-09T03:47:39.720Z,100855.88
2023-04-09T03:50:43.097Z,100858.34
2023-04-09T03:53:45.906Z,100855.72
2023-04-09T03:56:49.589Z,100859.16
2023-04-09T03:59:52.700Z,100865.84
2023-04-09T04:02:56.636Z,100861.06
2023-04-09T04:06:04.091Z,100863.94
2023-04-09T04:09:07.498Z,100866.25
2023-04-09T04:12:10.622Z,100874.00
2023-04-09T04:15:14.029Z,100872.38
2023-04-09T04:18:17.216Z,100867.03
2023-04-09T04:21:20.515Z,100870.94
2023-04-09T04:24:23.568Z,100869.09
2023-04-09T04:27:26.908Z,100870.78
2023-04-09T04:30:29.968Z,100879.47
2023-04-09T04:33:33.809Z,100883.66
2023-04-09T04:36:37.825Z,100880.03
2023-04-09T04:39:41.291Z,100885.88
2023-04-09T04:42:46.817Z,100897.06
2023-04-09T04:45:51.355Z,100893.78
2023-04-09T04:48:56.240Z,100889.97
2023-04-09T04:51:59.945Z,100899.13
2023-04-09T04:55:03.167Z,100895.69
2023-04-09T04:58:06.944Z,100894.13
2023-04-09T05:01:10.988Z,100896.31
2023-04-09T05:04:14.684Z,100892.81
2023-04-09T05:07:18.586Z,100899.72
2023-04-09T05:10:21.502Z,100903.88
2023-04-09T05:13:25.153Z,100896.97
2023-04-09T05:16:28.193Z,100901.19
2023-04-09T05:19:33.637Z,100907.25
2023-04-09T05:22:37.135Z,100904.66
2023-04-09T05:25:40.834Z,100907.84
2023-04-09T05:28:44.128Z,100909.22
2023-04-09T05:31:47.324Z,100914.34
2023-04-09T05:34:50.559Z,100912.06
2023-04-09T05:37:53.945Z,100919.63
2023-04-09T05:40:57.016Z,100918.19
2023-04-09T05:44:01.007Z,100922.88
2023-04-09T05:47:04.229Z,100916.50
2023-04-09T05:50:08.159Z,100918.72
2023-04-09T05:53:11.513Z,100926.28
2023-04-09T05:56:16.356Z,100933.06
2023-04-09T05:59:20.227Z,100931.22
2023-04-09T06:02:24.468Z,100934.84
2023-04-09T06:05:29.422Z,100935.50
2023-04-09T06:08:32.949Z,100931.81
2023-04-09T06:11:36.322Z,100944.44
2023-04-09T06:14:40.856Z,100944.16
2023-04-09T06:17:44.199Z,100940.78
2023-04-09T06:20:47.069Z,100946.31
2023-04-09T06:23:50.722Z,100934.59
2023-04-09T06:26:54.289Z,100948.44
2023-04-09T06:29:57.456Z,100943.06
2023-04-09T06:33:00.787Z,100942.13
2023-04-09T06:36:05.021Z,100947.72
2023-04-09T06:39:08.479Z,100943.47
2023-04-09T06:42:11.965Z,100945.03
2023-04-09T06:45:15.680Z,100950.69
2023-04-09T06:48:19.838Z,100950.19
2023-04-09T06:51:23.409Z,100944.53
2023-04-09T06:54:27.280Z,100951.47
2023-04-09T06:57:30.526Z,100948.09
2023-04-09T07:00:34.048Z,100954.03
2023-04-09T07:03:38.126Z,100955.81
2023-04-09T07:06:41.860Z,100961.38
2023-04-09T07:09:45.560Z,100971.00
2023-04-09T07:12:49.358Z,100965.13
2023-04-09T07:15:52.371Z,100960.59
2023-04-09T07:18:55.966Z,100957.03
2023-04-09T07:21:59.571Z,100965.06
2023-04-09T07:25:02.986Z,100973.22
2023-04-09T07:28:06.459Z,100981.38
2023-04-09T07:31:10.826Z,100983.41
2023-04-09T07:34:14.732Z,100989.37
2023-04-09T07:37:18.045Z,100980.22
2023-04-09T07:40:21.406Z,100980.78
2023-04-09T07:43:24.703Z,100986.84
2023-04-09T07:46:28.473Z,100987.13
2023-04-09T07:49:31.863Z,100991.34
2023-04-09T07:52:35.217Z,100989.94
2023-04-09T07:55:39.027Z,100990.28
2023-04-09T07:58:43.564Z,100997.91
2023-04-09T08:01:47.134Z,100993.81
2023-04-09T08:04:51.950Z,100998.59
2023-04-09T08:07:55.074Z,100999.94
2023-04-09T08:10:58.268Z,100997.69
2023-04-09T08:14:03.830Z,101000.47
2023-04-09T08:17:07.637Z,101007.84
2023-04-09T08:20:12.158Z,101010.97
2023-04-09T08:23:15.663Z,101003.97
2023-04-09T08:26:18.784Z,101004.28
2023-04-09T08:29:23.079Z,101007.66
2023-04-09T08:32:26.846Z,101008.38
2023-04-09T08:35:34.198Z,101012.06
2023-04-09T08:38:38.918Z,101009.16
2023-04-09T08:41:46.714Z,101019.63
2023-04-09T08:44:54.215Z,101022.19
2023-04-09T08:48:00.336Z,101024.34
2023-04-09T08:51:04.609Z,101019.84
2023-04-09T08:54:08.831Z,101028.59
2023-04-09T08:57:13.240Z,101028.22
2023-04-09T09:00:17.263Z,101034.94
2023-04-09T09:03:21.865Z,101032.56
2023-04-09T09:06:28.359Z,101038.62
2023-04-09T09:09:32.576Z,101033.87
2023-04-09T09:12:37.117Z,101035.25
2023-04-09T09:15:40.408Z,101042.28
2023-04-09T09:18:45.011Z,101043.44
2023-04-09T09:21:57.041Z,101046.31
2023-04-09T09:25:00.236Z,101044.22
2023-04-09T09:28:11.312Z,101042.34
2023-04-09T09:31:16.060Z,101043.81
2023-04-09T09:34:20.754Z,101051.75
2023-04-09T09:37:29.501Z,101042.12
2023-04-09T09:40:33.193Z,101041.00
2023-04-09T09:43:44.461Z,101032.31
2023-04-09T09:46:47.542Z,101034.88
2023-04-09T09:49:51.417Z,101039.22
2023-04-09T09:53:06.887Z,101035.34
2023-04-09T09:56:15.284Z,101030.00
2023-04-09T09:59:22.800Z,101031.59
2023-04-09T10:02:31.996Z,101030.25
2023-04-09T10:05:38.303Z,101025.75
2023-04-09T10:08:43.244Z,101025.84
2023-04-09T10:11:49.761Z,101035.03
2023-04-09T10:14:58.315Z,101029.06
2023-04-09T10:18:03.646Z,101026.72
2023-04-09T10:21:25.000Z,101033.22
2023-04-09T10:24:28.614Z,101031.69
2023-04-09T10:27:33.144Z,101029.47
2023-04-09T10:30:38.188Z,101029.87
2023-04-09T10:33:46.776Z,101029.25
2023-04-09T10:36:54.637Z,101031.56
2023-04-09T10:39:59.845Z,101020.19
2023-04-09T10:43:04.496Z,101033.94
2023-04-09T10:46:09.596Z,101028.38
2023-04-09T10:49:15.891Z,101031.41
2023-04-09T10:52:31.265Z,101027.22
2023-04-09T10:55:42.351Z,101027.06
2023-04-09T10:58:45.538Z,101023.03
2023-04-09T11:01:57.498Z,101026.44
2023-04-09T11:05:03.726Z,101020.22
2023-04-09T11:08:08.632Z,101027.00
2023-04-09T11:11:12.769Z,101021.19
2023-04-09T11:14:20.363Z,101017.00
2023-04-09T11:17:24.300Z,101024.50
2023-04-09T11:20:28.495Z,101026.38
2023-04-09T11:23:33.022Z,101018.56
2023-04-09T11:26:37.757Z,101021.25
2023-04-09T11:29:41.668Z,101020.94
2023-04-09T11:32:45.686Z,101014.13
2023-04-09T11:35:49.466Z,101015.12
2023-04-09T11:38:53.013Z,101013.50
2023-04-09T11:41:56.589Z,101014.97
2023-04-09T11:45:00.316Z,101010.53
2023-04-09T11:48:04.186Z,101014.34
2023-04-09T11:51:08.022Z,101007.78
2023-04-09T11:54:12.981Z,101008.72
2023-04-09T11:57:17.499Z,101011.03
2023-04-09T12:00:22.037Z,101013.75
2023-04-09T12:03:33.804Z,101015.97
2023-04-09T12:06:41.512Z,101017.25
2023-04-09T12:09:48.908Z,101009.53
2023-04-09T12:12:51.948Z,101017.28
2023-04-09T12:15:59.106Z,101011.00
2023-04-09T12:19:07.410Z,101008.12
2023-04-09T12:22:10.828Z,101003.06
2023-04-09T12:25:13.738Z,101007.63
2023-04-09T12:28:18.896Z,101006.63
2023-04-09T12:31:21.871Z,101006.75
2023-04-09T12:34:25.250Z,101005.31
2023-04-09T12:37:29.439Z,100996.63
2023-04-09T12:40:32.357Z,100989.16
2023-04-09T12:43:35.647Z,100997.88
2023-04-09T12:46:39.267Z,100991.47
2023-04-09T12:49:45.827Z,100991.44
2023-04-09T12:52:48.541Z,100989.69
2023-04-09T12:55:51.378Z,100979.94
2023-04-09T12:58:55.009Z,100985.44
2023-04-09T13:01:58.078Z,100991.38
2023-04-09T13:05:01.513Z,100984.47
2023-04-09T13:08:04.486Z,100976.72
2023-04-09T13:11:07.487Z,100974.09
2023-04-09T13:14:14.036Z,100971.53
2023-04-09T13:17:16.844Z,100972.19
2023-04-09T13:20:20.145Z,100976.28
2023-04-09T13:23:22.713Z,100966.34
2023-04-09T13:26:25.499Z,100971.91
2023-04-09T13:29:29.921Z,100967.25
2023-04-09T13:32:32.523Z,100966.81
2023-04-09T13:35:35.112Z,100966.91
2023-04-09T13:38:37.512Z,100965.78
2023-04-09T13:41:40.665Z,100960.19
2023-04-09T13:44:45.569Z,100964.84
2023-04-09T13:47:48.329Z,100956.00
2023-04-09T13:50:51.077Z,100961.72
2023-04-09T13:53:53.541Z,100960.75
2023-04-09T13:56:56.636Z,100960.56
2023-04-09T14:00:02.400Z,100955.03
2023-04-09T14:03:05.132Z,100957.81
2023-04-09T14:06:09.382Z,100951.13
2023-04-09T14:09:12.511Z,100946.28
2023-04-09T14:12:15.157Z,100942.22
2023-04-09T14:15:18.255Z,100938.09
2023-04-09T14:18:20.752Z,100938.94
2023-04-09T14:21:23.571Z,100943.13
2023-04-09T14:24:26.406Z,100932.78
2023-04-09T14:27:29.390Z,100927.31
2023-04-09T14:30:32.014Z,100926.81
2023-04-09T14:33:34.562Z,100929.41
2023-04-09T14:36:37.866Z,100926.34
2023-04-09T14:39:40.854Z,100924.47
2023-04-09T14:42:43.461Z,100926.97
2023-04-09T14:45:46.126Z,100923.44
2023-04-09T14:48:49.287Z,100921.25
2023-04-09T14:51:52.348Z,100925.22
2023-04-09T14:54:54.972Z,100919.88
2023-04-09T14:57:58.020Z,100918.31
2023-04-09T15:01:00.595Z,100915.94
2023-04-09T15:04:03.117Z,100917.56
2023-04-09T15:07:07.394Z,100918.84
2023-04-09T15:10:10.172Z,100913.34
2023-04-09T15:13:13.145Z,100918.44
2023-04-09T15:16:22.405Z,100917.00
2023-04-09T15:19:24.852Z,100908.94
2023-04-09T15:22:27.285Z,100905.72
2023-04-09T15:25:29.952Z,100912.09
2023-04-09T15:28:32.398Z,100903.25
2023-04-09T15:31:35.231Z,100906.94
2023-04-09T15:34:38.308Z,100902.81
2023-04-09T15:37:41.153Z,100903.22
2023-04-09T15:40:43.736Z,100906.28
2023-04-09T15:43:46.337Z,100903.88
2023-04-09T15:46:48.929Z,100905.75
2023-04-09T15:49:53.526Z,100908.47
2023-04-09T15:52:56.620Z,100912.03
2023-04-09T15:55:59.316Z,100905.63
2023-04-09T15:59:02.500Z,100907.69
2023-04-09T16:02:05.355Z,100903.31
2023-04-09T16:05:13.299Z,100907.66
2023-04-09T16:08:16.437Z,100903.44
2023-04-09T16:11:19.091Z,100905.97
2023-04-09T16:14:21.804Z,100904.81
2023-04-09T16:17:25.271Z,100903.91
2023-04-09T16:20:29.650Z,100901.56
2023-04-09T16:23:33.551Z,100900.75
2023-04-09T16:26:36.283Z,100901.50
2023-04-09T16:29:39.068Z,100911.06
2023-04-09T16:32:41.998Z,100906.16
2023-04-09T16:35:44.715Z,100903.62
2023-04-09T16:38:49.441Z,100899.56
2023-04-09T16:41:52.891Z,100912.75
2023-04-09T16:44:56.013Z,100914.72
2023-04-09T16:47:58.962Z,100909.72
2023-04-09T16:51:01.758Z,100914.31
2023-04-09T16:54:04.691Z,100915.25
2023-04-09T16:57:07.265Z,100911.91
2023-04-09T17:00:10.825Z,100912.19
2023-04-09T17:03:13.720Z,100918.63
2023-04-09T17:06:17.363Z,100913.69
2023-04-09T17:09:21.342Z,100911.63
2023-04-09T17:12:25.036Z,100913.78
2023-04-09T17:15:28.381Z,100908.66
2023-04-09T17:18:31.063Z,100909.56
2023-04-09T17:21:33.887Z,100915.63
2023-04-09T17:24:37.503Z,100918.03
2023-04-09T17:27:41.109Z,100910.41
2023-04-09T17:30:44.492Z,100916.16
2023-04-09T17:33:48.886Z,100913.47
2023-04-09T17:36:57.790Z,100912.72
2023-04-09T17:40:01.427Z,100918.03
2023-04-09T17:43:04.564Z,100924.59
2023-04-09T17:46:10.490Z,100923.88
2023-04-09T17:49:13.579Z,100920.16
2023-04-09T17:52:17.228Z,100920.56
2023-04-09T17:55:20.477Z,100930.44
2023-04-09T17:58:25.037Z,100928.31
2023-04-09T18:01:28.427Z,100934.81
2023-04-09T18:04:32.211Z,100944.59
2023-04-09T18:07:35.312Z,100944.19
2023-04-09T18:10:38.575Z,100942.88
2023-04-09T18:13:41.474Z,100948.28
2023-04-09T18:16:44.794Z,100948.81
2023-04-09T18:19:47.792Z,100947.62
2023-04-09T18:22:51.493Z,100951.06
2023-04-09T18:25:54.893Z,100952.16
2023-04-09T18:29:00.594Z,100959.50
2023-04-09T18:32:04.101Z,100953.47
2023-04-09T18:35:07.778Z,100957.31
2023-04-09T18:38:10.489Z,100957.31
2023-04-09T18:41:17.275Z,100960.19
2023-04-09T18:44:20.434Z,100960.38
2023-04-09T18:47:23.104Z,100958.91
2023-04-09T18:50:26.236Z,100963.94
2023-04-09T18:53:29.300Z,100966.66
2023-04-09T18:56:32.396Z,100962.00
2023-04-09T18:59:35.337Z,100964.59
2023-04-09T19:02:38.347Z,100961.53
2023-04-09T19:05:41.973Z,100961.59
2023-04-09T19:08:44.966Z,100963.91
2023-04-09T19:11:48.018Z,100969.31
2023-04-09T19:14:51.295Z,100972.84
2023-04-09T19:17:55.035Z,100972.44
2023-04-09T19:20:58.168Z,100974.44
2023-04-09T19:24:02.499Z,100971.91
2023-04-09T19:27:10.400Z,100976.19
2023-04-09T19:30:15.075Z,100969.47
2023-04-09T19:33:18.119Z,100973.69
2023-04-09T19:36:23.800Z,100968.91
2023-04-09T19:39:27.508Z,100968.28
2023-04-09T19:42:30.187Z,100971.06
2023-04-09T19:45:32.772Z,100974.03
2023-04-09T19:48:36.154Z,100967.72
2023-04-09T19:51:38.961Z,100966.28
2023-04-09T19:54:41.950Z,100976.16
2023-04-09T19:57:46.510Z,100975.50
2023-04-09T20:00:49.560Z,100968.06
2023-04-09T20:03:53.197Z,100965.97
2023-04-09T20:06:55.645Z,100967.09
2023-04-09T20:09:58.748Z,100970.09
2023-04-09T20:13:02.453Z,100973.09
2023-04-09T20:16:05.888Z,100980.31
2023-04-09T20:19:08.440Z,100976.28
2023-04-09T20:22:11.638Z,100981.59
2023-04-09T20:25:14.897Z,100975.03
2023-04-09T20:28:17.814Z,100984.75
2023-04-09T20:31:20.771Z,100972.91
2023-04-09T20:34:27.622Z,100975.66
2023-04-09T20:37:31.164Z,100981.94
2023-04-09T20:40:36.080Z,100980.13
2023-04-09T20:43:39.005Z,100983.69
2023-04-09T20:46:42.594Z,100971.78
2023-04-09T20:49:47.042Z,100973.63
2023-04-09T20:52:50.134Z,100977.91
2023-04-09T20:55:54.131Z,100977.97
2023-04-09T20:59:00.929Z,100981.00
2023-04-09T21:02:04.405Z,100979.37
2023-04-09T21:05:23.666Z,100981.97
2023-04-09T21:08:27.613Z,100976.97
2023-04-09T21:11:29.970Z,100974.62
2023-04-09T21:14:32.142Z,100971.47
2023-04-09T21:17:35.237Z,100968.13
2023-04-09T21:20:38.969Z,100977.00
2023-04-09T21:23:42.354Z,100972.78
2023-04-09T21:26:51.751Z,100973.69
2023-04-09T21:29:55.008Z,100967.72
2023-04-09T21:32:58.299Z,100976.59
2023-04-09T21:36:02.586Z,100966.28
2023-04-09T21:39:06.432Z,100961.22
2023-04-09T21:42:09.655Z,100964.84
2023-04-09T21:45:12.741Z,100965.69
2023-04-09T21:48:15.311Z,100963.22
2023-04-09T21:51:18.699Z,100972.00
2023-04-09T21:54:23.550Z,100961.75
2023-04-09T21:57:26.585Z,100963.56
2023-04-09T22:00:30.509Z,100967.94
2023-04-09T22:03:33.916Z,100965.56
2023-04-09T22:06:37.149Z,100963.97
2023-04-09T22:09:39.922Z,100970.06
2023-04-09T22:12:42.824Z,100966.84
2023-04-09T22:15:45.817Z,100973.78
2023-04-09T22:18:49.013Z,100974.56
2023-04-09T22:21:51.798Z,100965.28
2023-04-09T22:24:54.990Z,100979.22
2023-04-09T22:27:58.075Z,100974.06
2023-04-09T22:31:01.724Z,100967.81
2023-04-09T22:34:19.367Z,100980.19
2023-04-09T22:37:23.959Z,100976.09
2023-04-09T22:40:27.182Z,100971.34
2023-04-09T22:43:30.200Z,100980.19
2023-04-09T22:46:35.818Z,100980.25
2023-04-09T22:49:39.808Z,100975.25
2023-04-09T22:52:43.794Z,100977.78
2023-04-09T22:55:52.023Z,100975.19
2023-04-09T22:58:55.713Z,100980.44
2023-04-09T23:01:59.041Z,100973.88
2023-04-09T23:05:02.760Z,100975.78
2023-04-09T23:08:06.251Z,100982.84
2023-04-09T23:11:09.657Z,100980.47
2023-04-09T23:14:12.800Z,100970.47
2023-04-09T23:17:15.622Z,100976.78
2023-04-09T23:20:19.336Z,100967.47
2023-04-09T23:23:22.639Z,100970.94
2023-04-09T23:26:26.317Z,100972.06
2023-04-09T23:29:29.538Z,100973.00
2023-04-09T23:32:33.102Z,100969.63
2023-04-09T23:35:37.285Z,100967.84
2023-04-09T23:38:42.089Z,100967.06
2023-04-09T23:41:45.247Z,100965.19
2023-04-09T23:44:48.588Z,100963.63
2023-04-09T23:47:52.405Z,100964.72
2023-04-09T23:50:55.608Z,100961.38
2023-04-09T23:53:58.990Z,100964.91
2023-04-09T23:57:02.460Z,100956.59
